createdAt,value
2018-12-14T00:01:36.086Z,100175.00
2018-12-14T00:04:05.865Z,100172.00
2018-12-14T00:06:34.220Z,100175.00
2018-12-14T00:09:02.476Z,100174.00
2018-12-14T00:11:34.527Z,100171.00
2018-12-14T00:14:02.865Z,100173.00
2018-12-14T00:16:31.078Z,100170.00
2018-12-14T00:18:59.282Z,100172.00
2018-12-14T00:21:40.067Z,100177.00
2018-12-14T00:24:08.294Z,100167.00
2018-12-14T00:26:36.563Z,100164.00
2018-12-14T00:29:04.814Z,100173.00
2018-12-14T00:31:36.123Z,100174.00
2018-12-14T00:34:04.373Z,100179.00
2018-12-14T00:36:32.636Z,100181.00
2018-12-14T00:39:00.888Z,100182.00
2018-12-14T00:41:32.005Z,100186.00
2018-12-14T00:44:00.261Z,100183.00
2018-12-14T00:46:28.485Z,100195.00
2018-12-14T00:48:56.691Z,100185.00
2018-12-14T00:51:28.764Z,100194.00
2018-12-14T00:53:56.960Z,100194.00
2018-12-14T00:56:25.124Z,100194.00
2018-12-14T00:58:53.392Z,100200.00
2018-12-14T01:01:25.107Z,100198.00
2018-12-14T01:03:53.327Z,100207.00
2018-12-14T01:06:21.494Z,100201.00
2018-12-14T01:08:49.745Z,100199.00
2018-12-14T01:11:21.482Z,100207.00
2018-12-14T01:13:49.674Z,100191.00
2018-12-14T01:16:17.947Z,100201.00
2018-12-14T01:18:46.177Z,100197.00
2018-12-14T01:21:18.014Z,100214.00
2018-12-14T01:23:46.173Z,100204.00
2018-12-14T01:26:14.356Z,100205.00
2018-12-14T01:28:42.584Z,100212.00
2018-12-14T01:31:14.441Z,100206.00
2018-12-14T01:33:42.643Z,100208.00
2018-12-14T01:36:11.028Z,100203.00
2018-12-14T01:38:39.243Z,100202.00
2018-12-14T01:41:10.600Z,100199.00
2018-12-14T01:43:38.816Z,100201.00
2018-12-14T01:46:07.048Z,100201.00
2018-12-14T01:48:35.411Z,100192.00
2018-12-14T01:51:07.562Z,100198.00
2018-12-14T01:53:35.782Z,100206.00
2018-12-14T01:56:04.014Z,100194.00
2018-12-14T01:58:32.183Z,100193.00
2018-12-14T02:01:03.577Z,100205.00
2018-12-14T02:03:31.790Z,100202.00
2018-12-14T02:06:00.333Z,100196.00
2018-12-14T02:08:28.539Z,100200.00
2018-12-14T02:11:00.318Z,100191.00
2018-12-14T02:13:28.527Z,100192.00
2018-12-14T02:15:56.760Z,100193.00
2018-12-14T02:18:24.929Z,100195.00
2018-12-14T02:20:56.795Z,100197.00
2018-12-14T02:23:25.038Z,100188.00
2018-12-14T02:25:53.255Z,100188.00
2018-12-14T02:28:21.452Z,100193.00
2018-12-14T02:30:53.273Z,100185.00
2018-12-14T02:33:21.508Z,100187.00
2018-12-14T02:35:49.724Z,100191.00
2018-12-14T02:38:17.901Z,100189.00
2018-12-14T02:40:49.835Z,100186.00
2018-12-14T02:43:19.000Z,100184.00
2018-12-14T02:45:47.278Z,100193.00
2018-12-14T02:48:15.502Z,100191.00
2018-12-14T02:50:47.240Z,100183.00
2018-12-14T02:53:16.199Z,100190.00
2018-12-14T02:55:44.411Z,100176.00
2018-12-14T02:58:12.661Z,100189.00
2018-12-14T03:00:44.609Z,100181.00
2018-12-14T03:03:12.817Z,100186.00
2018-12-14T03:05:41.033Z,100192.00
2018-12-14T03:08:09.234Z,100198.00
2018-12-14T03:10:43.937Z,100191.00
2018-12-14T03:13:12.097Z,100184.00
2018-12-14T03:15:40.313Z,100191.00
2018-12-14T03:18:08.512Z,100185.00
2018-12-14T03:20:39.942Z,100195.00
2018-12-14T03:23:08.171Z,100187.00
2018-12-14T03:25:36.391Z,100189.00
2018-12-14T03:28:04.652Z,100194.00
2018-12-14T03:30:36.473Z,100189.00
2018-12-14T03:33:04.713Z,100200.00
2018-12-14T03:35:32.969Z,100194.00
2018-12-14T03:38:01.438Z,100189.00
2018-12-14T03:40:32.816Z,100198.00
2018-12-14T03:43:01.164Z,100195.00
2018-12-14T03:45:29.391Z,100196.00
2018-12-14T03:47:57.592Z,100194.00
2018-12-14T03:50:29.155Z,100190.00
2018-12-14T03:52:57.392Z,100203.00
2018-12-14T03:55:25.621Z,100193.00
2018-12-14T03:57:54.521Z,100197.00
2018-12-14T04:00:28.517Z,100190.00
2018-12-14T04:02:56.946Z,100192.00
2018-12-14T04:05:25.349Z,100194.00
2018-12-14T04:07:53.534Z,100187.00
2018-12-14T04:10:25.154Z,100185.00
2018-12-14T04:12:53.367Z,100194.00
2018-12-14T04:15:21.567Z,100197.00
2018-12-14T04:17:50.305Z,100192.00
2018-12-14T04:20:21.493Z,100193.00
2018-12-14T04:22:49.712Z,100198.00
2018-12-14T04:25:17.906Z,100203.00
2018-12-14T04:27:46.131Z,100206.00
2018-12-14T04:30:18.165Z,100202.00
2018-12-14T04:32:46.465Z,100201.00
2018-12-14T04:35:14.662Z,100209.00
2018-12-14T04:37:42.919Z,100200.00
2018-12-14T04:40:14.391Z,100210.00
2018-12-14T04:42:48.866Z,100210.00
2018-12-14T04:45:12.794Z,100201.00
2018-12-14T04:47:41.054Z,100207.00
2018-12-14T04:50:12.830Z,100210.00
2018-12-14T04:52:41.042Z,100206.00
2018-12-14T04:55:09.287Z,100219.00
2018-12-14T04:57:37.472Z,100210.00
2018-12-14T05:00:09.330Z,100220.00
2018-12-14T05:02:37.591Z,100207.00
2018-12-14T05:05:06.236Z,100213.00
2018-12-14T05:07:34.588Z,100210.00
2018-12-14T05:10:06.339Z,100204.00
2018-12-14T05:12:34.588Z,100211.00
2018-12-14T05:15:02.833Z,100214.00
2018-12-14T05:17:31.054Z,100207.00
2018-12-14T05:19:59.261Z,100208.00
2018-12-14T05:22:27.501Z,100215.00
2018-12-14T05:24:55.699Z,100209.00
2018-12-14T05:27:23.972Z,100212.00
2018-12-14T05:30:02.361Z,100221.00
2018-12-14T05:32:30.598Z,100214.00
2018-12-14T05:34:58.783Z,100217.00
2018-12-14T05:37:27.013Z,100224.00
2018-12-14T05:39:56.317Z,100224.00
2018-12-14T05:42:24.554Z,100222.00
2018-12-14T05:44:52.770Z,100212.00
2018-12-14T05:47:21.013Z,100219.00
2018-12-14T05:49:49.271Z,100213.00
2018-12-14T05:52:17.532Z,100238.00
2018-12-14T05:54:45.725Z,100230.00
2018-12-14T05:57:13.995Z,100221.00
2018-12-14T05:59:42.336Z,100220.00
2018-12-14T06:02:10.545Z,100216.00
2018-12-14T06:04:38.714Z,100219.00
2018-12-14T06:07:06.906Z,100230.00
2018-12-14T06:09:35.136Z,100232.00
2018-12-14T06:12:07.210Z,100236.00
2018-12-14T06:14:35.458Z,100232.00
2018-12-14T06:17:03.666Z,100235.00
2018-12-14T06:19:31.833Z,100227.00
2018-12-14T06:22:03.323Z,100230.00
2018-12-14T06:24:31.534Z,100240.00
2018-12-14T06:26:59.749Z,100238.00
2018-12-14T06:29:28.007Z,100240.00
2018-12-14T06:32:04.406Z,100240.00
2018-12-14T06:34:32.745Z,100245.00
2018-12-14T06:37:01.019Z,100241.00
2018-12-14T06:39:29.308Z,100238.00
2018-12-14T06:42:00.763Z,100254.00
2018-12-14T06:44:28.962Z,100244.00
2018-12-14T06:46:57.170Z,100237.00
2018-12-14T06:49:25.363Z,100263.00
2018-12-14T06:51:56.877Z,100254.00
2018-12-14T06:54:25.301Z,100254.00
2018-12-14T06:56:53.554Z,100261.00
2018-12-14T06:59:21.767Z,100261.00
2018-12-14T07:01:52.879Z,100252.00
2018-12-14T07:04:21.094Z,100263.00
2018-12-14T07:06:49.288Z,100264.00
2018-12-14T07:09:17.500Z,100263.00
2018-12-14T07:11:49.265Z,100264.00
2018-12-14T07:14:17.500Z,100271.00
2018-12-14T07:16:45.725Z,100268.00
2018-12-14T07:19:14.039Z,100281.00
2018-12-14T07:21:48.503Z,100279.00
2018-12-14T07:24:16.919Z,100278.00
2018-12-14T07:26:45.259Z,100276.00
2018-12-14T07:29:13.615Z,100283.00
2018-12-14T07:31:45.185Z,100274.00
2018-12-14T07:34:13.378Z,100281.00
2018-12-14T07:36:41.615Z,100279.00
2018-12-14T07:39:09.769Z,100280.00
2018-12-14T07:41:41.160Z,100296.00
2018-12-14T07:44:09.403Z,100288.00
2018-12-14T07:46:37.613Z,100290.00
2018-12-14T07:49:05.867Z,100282.00
2018-12-14T07:51:37.567Z,100287.00
2018-12-14T07:54:08.814Z,100291.00
2018-12-14T07:56:37.073Z,100291.00
2018-12-14T07:59:05.404Z,100302.00
2018-12-14T08:01:37.398Z,100294.00
2018-12-14T08:04:05.593Z,100294.00
2018-12-14T08:06:33.858Z,100304.00
2018-12-14T08:09:02.186Z,100308.00
2018-12-14T08:11:34.071Z,100316.00
2018-12-14T08:14:02.371Z,100321.00
2018-12-14T08:16:30.532Z,100320.00
2018-12-14T08:18:58.747Z,100314.00
2018-12-14T08:21:30.015Z,100330.00
2018-12-14T08:23:58.222Z,100317.00
2018-12-14T08:26:26.571Z,100319.00
2018-12-14T08:28:54.800Z,100332.00
2018-12-14T08:31:26.228Z,100334.00
2018-12-14T08:33:54.528Z,100337.00
2018-12-14T08:36:22.747Z,100334.00
2018-12-14T08:38:50.902Z,100335.00
2018-12-14T08:41:22.200Z,100344.00
2018-12-14T08:43:50.418Z,100358.00
2018-12-14T08:46:18.634Z,100353.00
2018-12-14T08:48:46.839Z,100351.00
2018-12-14T08:51:18.526Z,100358.00
2018-12-14T08:53:46.741Z,100356.00
2018-12-14T08:56:14.953Z,100363.00
2018-12-14T08:58:43.183Z,100366.00
2018-12-14T09:01:15.035Z,100374.00
2018-12-14T09:03:43.241Z,100373.00
2018-12-14T09:06:11.425Z,100359.00
2018-12-14T09:08:39.675Z,100368.00
2018-12-14T09:11:11.628Z,100360.00
2018-12-14T09:13:39.852Z,100375.00
2018-12-14T09:16:08.013Z,100369.00
2018-12-14T09:18:36.275Z,100377.00
2018-12-14T09:21:08.379Z,100376.00
2018-12-14T09:23:36.617Z,100380.00
2018-12-14T09:26:05.086Z,100375.00
2018-12-14T09:28:34.324Z,100377.00
2018-12-14T09:31:06.216Z,100366.00
2018-12-14T09:33:34.387Z,100385.00
2018-12-14T09:36:02.700Z,100385.00
2018-12-14T09:38:30.860Z,100391.00
2018-12-14T09:41:02.603Z,100389.00
2018-12-14T09:43:30.841Z,100396.00
2018-12-14T09:45:59.076Z,100387.00
2018-12-14T09:48:27.238Z,100381.00
2018-12-14T09:50:59.232Z,100390.00
2018-12-14T09:53:27.480Z,100395.00
2018-12-14T09:55:55.666Z,100388.00
2018-12-14T09:58:23.832Z,100389.00
2018-12-14T10:00:55.770Z,100391.00
2018-12-14T10:03:24.043Z,100389.00
2018-12-14T10:05:52.301Z,100386.00
2018-12-14T10:08:20.518Z,100387.00
2018-12-14T10:10:52.657Z,100379.00
2018-12-14T10:13:21.091Z,100381.00
2018-12-14T10:15:49.302Z,100391.00
2018-12-14T10:18:17.641Z,100403.00
2018-12-14T10:20:49.230Z,100397.00
2018-12-14T10:23:17.434Z,100388.00
2018-12-14T10:25:45.669Z,100366.00
2018-12-14T10:28:13.837Z,100398.00
2018-12-14T10:30:45.629Z,100392.00
2018-12-14T10:33:13.790Z,100402.00
2018-12-14T10:35:42.018Z,100402.00
2018-12-14T10:38:10.210Z,100387.00
2018-12-14T10:40:41.813Z,100387.00
2018-12-14T10:43:10.012Z,100384.00
2018-12-14T10:45:38.360Z,100381.00
2018-12-14T10:48:06.558Z,100379.00
2018-12-14T10:50:39.629Z,100378.00
2018-12-14T10:53:10.015Z,100383.00
2018-12-14T10:55:38.226Z,100375.00
2018-12-14T10:58:06.499Z,100374.00
2018-12-14T11:00:44.015Z,100386.00
2018-12-14T11:03:12.228Z,100381.00
2018-12-14T11:05:40.465Z,100378.00
2018-12-14T11:08:08.704Z,100379.00
2018-12-14T11:10:40.052Z,100376.00
2018-12-14T11:13:08.257Z,100376.00
2018-12-14T11:15:36.484Z,100370.00
2018-12-14T11:18:05.989Z,100377.00
2018-12-14T11:20:37.683Z,100380.00
2018-12-14T11:23:05.890Z,100374.00
2018-12-14T11:25:34.501Z,100372.00
2018-12-14T11:28:02.742Z,100376.00
2018-12-14T11:30:33.916Z,100373.00
2018-12-14T11:33:02.164Z,100369.00
2018-12-14T11:35:30.398Z,100385.00
2018-12-14T11:37:58.575Z,100386.00
2018-12-14T11:40:29.841Z,100384.00
2018-12-14T11:42:58.071Z,100380.00
2018-12-14T11:45:26.240Z,100388.00
2018-12-14T11:47:54.460Z,100385.00
2018-12-14T11:50:26.426Z,100389.00
2018-12-14T11:52:54.621Z,100378.00
2018-12-14T11:55:22.831Z,100393.00
2018-12-14T11:57:51.054Z,100380.00
2018-12-14T12:00:22.672Z,100390.00
2018-12-14T12:02:50.930Z,100392.00
2018-12-14T12:05:19.141Z,100393.00
2018-12-14T12:07:47.593Z,100389.00
2018-12-14T12:10:19.502Z,100389.00
2018-12-14T12:12:47.713Z,100387.00
2018-12-14T12:15:15.911Z,100395.00
2018-12-14T12:17:49.413Z,100393.00
2018-12-14T12:20:21.427Z,100394.00
2018-12-14T12:22:49.730Z,100392.00
2018-12-14T12:25:18.026Z,100385.00
2018-12-14T12:27:46.234Z,100393.00
2018-12-14T12:30:17.770Z,100383.00
2018-12-14T12:32:46.044Z,100382.00
2018-12-14T12:35:14.282Z,100386.00
2018-12-14T12:37:42.489Z,100388.00
2018-12-14T12:40:13.841Z,100385.00
2018-12-14T12:42:42.186Z,100390.00
2018-12-14T12:45:10.423Z,100375.00
2018-12-14T12:47:38.652Z,100379.00
2018-12-14T12:50:10.157Z,100375.00
2018-12-14T12:52:38.394Z,100363.00
2018-12-14T12:55:06.642Z,100376.00
2018-12-14T12:57:34.867Z,100374.00
2018-12-14T13:00:03.339Z,100376.00
2018-12-14T13:02:31.599Z,100372.00
2018-12-14T13:04:59.826Z,100376.00
2018-12-14T13:07:28.054Z,100388.00
2018-12-14T13:09:56.229Z,100373.00
2018-12-14T13:12:24.475Z,100385.00
2018-12-14T13:14:52.684Z,100386.00
2018-12-14T13:17:20.937Z,100387.00
2018-12-14T13:19:55.362Z,100380.00
2018-12-14T13:22:23.578Z,100379.00
2018-12-14T13:24:51.733Z,100378.00
2018-12-14T13:27:20.408Z,100380.00
2018-12-14T13:29:48.816Z,100387.00
2018-12-14T13:32:17.030Z,100384.00
2018-12-14T13:34:45.258Z,100384.00
2018-12-14T13:37:13.561Z,100390.00
2018-12-14T13:39:41.782Z,100387.00
2018-12-14T13:42:09.941Z,100390.00
2018-12-14T13:44:38.211Z,100386.00
2018-12-14T13:47:06.413Z,100390.00
2018-12-14T13:49:34.650Z,100391.00
2018-12-14T13:52:05.807Z,100384.00
2018-12-14T13:54:34.039Z,100387.00
2018-12-14T13:57:02.200Z,100390.00
2018-12-14T13:59:30.401Z,100391.00
2018-12-14T14:02:02.261Z,100388.00
2018-12-14T14:04:30.458Z,100392.00
2018-12-14T14:06:58.668Z,100386.00
2018-12-14T14:09:26.867Z,100389.00
2018-12-14T14:12:07.665Z,100381.00
2018-12-14T14:14:54.732Z,100382.00
2018-12-14T14:17:22.922Z,100380.00
2018-12-14T14:19:51.400Z,100386.00
2018-12-14T14:22:20.065Z,100388.00
2018-12-14T14:24:48.340Z,100390.00
2018-12-14T14:27:16.525Z,100404.00
2018-12-14T14:29:44.742Z,100410.00
2018-12-14T14:32:13.339Z,100411.00
2018-12-14T14:37:15.961Z,100415.00
2018-12-14T14:39:44.213Z,100419.00
2018-12-14T14:42:12.559Z,100426.00
2018-12-14T14:44:40.779Z,100417.00
2018-12-14T14:47:08.999Z,100427.00
2018-12-14T14:49:37.186Z,100423.00
2018-12-14T14:52:09.032Z,100431.00
2018-12-14T14:54:51.687Z,100422.00
2018-12-14T14:57:19.855Z,100427.00
2018-12-14T14:59:48.027Z,100434.00
2018-12-14T15:02:16.253Z,100430.00
2018-12-14T15:04:57.580Z,100428.00
2018-12-14T15:07:25.753Z,100445.00
2018-12-14T15:09:54.000Z,100440.00
2018-12-14T15:12:22.207Z,100439.00
2018-12-14T15:14:50.397Z,100435.00
2018-12-14T15:17:19.496Z,100441.00
2018-12-14T15:19:47.765Z,100444.00
2018-12-14T15:22:15.980Z,100448.00
2018-12-14T15:24:44.202Z,100447.00
2018-12-14T15:27:12.365Z,100452.00
2018-12-14T15:29:40.608Z,100465.00
2018-12-14T15:32:09.081Z,100456.00
2018-12-14T15:34:37.277Z,100463.00
2018-12-14T15:37:05.513Z,100460.00
2018-12-14T15:39:33.744Z,100470.00
2018-12-14T15:42:04.902Z,100480.00
2018-12-14T15:44:33.143Z,100476.00
2018-12-14T15:47:01.387Z,100486.00
2018-12-14T15:49:29.583Z,100483.00
2018-12-14T15:52:04.354Z,100483.00
2018-12-14T15:54:32.654Z,100481.00
2018-12-14T15:57:00.813Z,100476.00
2018-12-14T15:59:29.003Z,100486.00
2018-12-14T16:02:01.043Z,100493.00
2018-12-14T16:04:29.222Z,100504.00
2018-12-14T16:06:57.494Z,100497.00
2018-12-14T16:09:25.735Z,100494.00
2018-12-14T16:11:57.013Z,100496.00
2018-12-14T16:14:25.229Z,100500.00
2018-12-14T16:16:53.430Z,100490.00
2018-12-14T16:19:21.724Z,100496.00
2018-12-14T16:22:02.831Z,100482.00
2018-12-14T16:24:31.069Z,100503.00
2018-12-14T16:26:59.322Z,100507.00
2018-12-14T16:29:27.503Z,100500.00
2018-12-14T16:31:59.072Z,100505.00
2018-12-14T16:34:27.311Z,100510.00
2018-12-14T16:36:55.496Z,100503.00
2018-12-14T16:39:23.653Z,100510.00
2018-12-14T16:41:55.421Z,100502.00
2018-12-14T16:44:23.593Z,100521.00
2018-12-14T16:46:51.795Z,100512.00
2018-12-14T16:49:20.141Z,100512.00
2018-12-14T16:51:51.838Z,100515.00
2018-12-14T16:54:20.118Z,100501.00
2018-12-14T16:56:48.336Z,100511.00
2018-12-14T16:59:16.714Z,100502.00
2018-12-14T17:01:48.832Z,100515.00
2018-12-14T17:04:17.083Z,100508.00
2018-12-14T17:06:45.318Z,100501.00
2018-12-14T17:09:13.505Z,100509.00
2018-12-14T17:11:44.927Z,100509.00
2018-12-14T17:14:13.113Z,100508.00
2018-12-14T17:16:54.288Z,100511.00
2018-12-14T17:19:22.458Z,100506.00
2018-12-14T17:21:53.733Z,100515.00
2018-12-14T17:24:21.946Z,100510.00
2018-12-14T17:26:50.243Z,100512.00
2018-12-14T17:29:18.503Z,100511.00
2018-12-14T17:31:50.492Z,100507.00
2018-12-14T17:34:18.713Z,100506.00
2018-12-14T17:36:47.017Z,100504.00
2018-12-14T17:39:15.225Z,100500.00
2018-12-14T17:41:49.822Z,100510.00
2018-12-14T17:44:18.038Z,100513.00
2018-12-14T17:46:46.431Z,100513.00
2018-12-14T17:49:14.675Z,100514.00
2018-12-14T17:51:46.018Z,100517.00
2018-12-14T17:54:14.259Z,100516.00
2018-12-14T17:56:42.441Z,100516.00
2018-12-14T17:59:10.619Z,100518.00
2018-12-14T18:01:42.274Z,100525.00
2018-12-14T18:04:10.630Z,100527.00
2018-12-14T18:06:38.898Z,100527.00
2018-12-14T18:09:07.154Z,100530.00
2018-12-14T18:11:38.291Z,100530.00
2018-12-14T18:14:06.543Z,100533.00
2018-12-14T18:16:34.807Z,100525.00
2018-12-14T18:19:03.121Z,100527.00
2018-12-14T18:21:34.354Z,100523.00
2018-12-14T18:24:02.565Z,100519.00
2018-12-14T18:26:30.833Z,100529.00
2018-12-14T18:28:59.024Z,100523.00
2018-12-14T18:31:33.371Z,100529.00
2018-12-14T18:34:01.598Z,100525.00
2018-12-14T18:36:29.924Z,100534.00
2018-12-14T18:38:58.163Z,100545.00
2018-12-14T18:44:23.170Z,100539.00
2018-12-14T18:46:51.436Z,100537.00
2018-12-14T18:49:19.627Z,100542.00
2018-12-14T18:51:51.421Z,100547.00
2018-12-14T18:54:19.642Z,100549.00
2018-12-14T18:56:47.845Z,100553.00
2018-12-14T18:59:16.042Z,100549.00
2018-12-14T19:01:47.308Z,100554.00
2018-12-14T19:04:15.497Z,100561.00
2018-12-14T19:06:43.736Z,100550.00
2018-12-14T19:09:12.016Z,100560.00
2018-12-14T19:11:43.800Z,100575.00
2018-12-14T19:14:12.026Z,100565.00
2018-12-14T19:17:17.639Z,100580.00
2018-12-14T19:19:45.850Z,100568.00
2018-12-14T19:23:54.950Z,100582.00
2018-12-14T19:26:23.137Z,100591.00
2018-12-14T19:28:51.433Z,100596.00
2018-12-14T19:31:32.435Z,100583.00
2018-12-14T19:34:00.705Z,100588.00
2018-12-14T19:36:28.938Z,100596.00
2018-12-14T19:38:57.539Z,100600.00
2018-12-14T19:41:39.120Z,100595.00
2018-12-14T19:44:07.312Z,100591.00
2018-12-14T19:46:35.599Z,100588.00
2018-12-14T19:49:03.841Z,100598.00
2018-12-14T19:51:45.818Z,100591.00
2018-12-14T19:54:14.104Z,100598.00
2018-12-14T19:56:42.678Z,100615.00
2018-12-14T19:59:10.903Z,100596.00
2018-12-14T20:04:36.070Z,100608.00
2018-12-14T20:07:04.442Z,100604.00
2018-12-14T20:12:29.044Z,100610.00
2018-12-14T20:14:57.247Z,100604.00
2018-12-14T20:17:25.441Z,100616.00
2018-12-14T20:19:53.674Z,100624.00
2018-12-14T20:22:21.935Z,100619.00
2018-12-14T20:24:50.130Z,100614.00
2018-12-14T20:27:18.342Z,100616.00
2018-12-14T20:29:46.520Z,100625.00
2018-12-14T20:32:14.726Z,100616.00
2018-12-14T20:34:42.979Z,100615.00
2018-12-14T20:37:11.212Z,100613.00
2018-12-14T20:39:39.978Z,100612.00
2018-12-14T20:42:08.171Z,100620.00
2018-12-14T20:44:36.378Z,100622.00
2018-12-14T20:47:04.633Z,100627.00
2018-12-14T20:49:32.835Z,100621.00
2018-12-14T20:52:13.515Z,100626.00
2018-12-14T20:54:42.117Z,100627.00
2018-12-14T20:57:17.105Z,100622.00
2018-12-14T20:59:45.363Z,100613.00
2018-12-14T21:02:13.600Z,100615.00
2018-12-14T21:04:41.871Z,100622.00
2018-12-14T21:07:10.104Z,100621.00
2018-12-14T21:09:38.379Z,100624.00
2018-12-14T21:12:06.605Z,100622.00
2018-12-14T21:14:34.895Z,100620.00
2018-12-14T21:17:03.154Z,100626.00
2018-12-14T21:19:31.885Z,100618.00
2018-12-14T21:24:51.785Z,100624.00
2018-12-14T21:27:20.035Z,100619.00
2018-12-14T21:29:48.263Z,100624.00
2018-12-14T21:32:16.481Z,100622.00
2018-12-14T21:34:44.662Z,100622.00
2018-12-14T21:37:12.881Z,100626.00
2018-12-14T21:39:41.225Z,100629.00
2018-12-14T21:42:09.478Z,100618.00
2018-12-14T21:44:38.150Z,100621.00
2018-12-14T21:47:06.375Z,100623.00
2018-12-14T21:49:34.750Z,100620.00
2018-12-14T21:54:59.670Z,100621.00
2018-12-14T21:57:27.874Z,100600.00
2018-12-14T21:59:56.443Z,100625.00
2018-12-14T22:02:24.679Z,100621.00
2018-12-14T22:04:52.992Z,100622.00
2018-12-14T22:07:24.084Z,100620.00
2018-12-14T22:09:52.335Z,100624.00
2018-12-14T22:12:41.772Z,100622.00
2018-12-14T22:15:10.032Z,100628.00
2018-12-14T22:17:38.263Z,100634.00
2018-12-14T22:20:19.547Z,100629.00
2018-12-14T22:22:47.718Z,100622.00
2018-12-14T22:25:15.955Z,100628.00
2018-12-14T22:27:44.125Z,100615.00
2018-12-14T22:30:25.267Z,100614.00
2018-12-14T22:32:55.817Z,100611.00
2018-12-14T22:35:24.551Z,100615.00
2018-12-14T22:37:52.795Z,100610.00
2018-12-14T22:40:27.536Z,100614.00
2018-12-14T22:42:56.231Z,100614.00
2018-12-14T22:45:24.461Z,100624.00
2018-12-14T22:47:52.637Z,100628.00
2018-12-14T22:50:22.877Z,100617.00
2018-12-14T22:52:52.614Z,100618.00
2018-12-14T22:55:20.896Z,100626.00
2018-12-14T22:57:49.126Z,100624.00
2018-12-14T23:00:20.249Z,100632.00
2018-12-14T23:02:48.739Z,100621.00
2018-12-14T23:05:16.995Z,100632.00
2018-12-14T23:07:45.294Z,100631.00
2018-12-14T23:10:30.107Z,100633.00
2018-12-14T23:12:58.376Z,100632.00
2018-12-14T23:15:26.613Z,100639.00
2018-12-14T23:18:07.454Z,100627.00
2018-12-14T23:20:37.795Z,100639.00
2018-12-14T23:23:05.988Z,100633.00
2018-12-14T23:25:34.256Z,100632.00
2018-12-14T23:28:02.486Z,100643.00
2018-12-14T23:30:36.536Z,100636.00
2018-12-14T23:33:04.786Z,100637.00
2018-12-14T23:35:33.058Z,100634.00
2018-12-14T23:38:01.276Z,100641.00
2018-12-14T23:40:39.260Z,100641.00
2018-12-14T23:43:07.484Z,100645.00
2018-12-14T23:45:35.720Z,100641.00
2018-12-14T23:48:04.617Z,100636.00
2018-12-14T23:50:34.366Z,100629.00
2018-12-14T23:53:02.667Z,100636.00
2018-12-14T23:55:30.971Z,100634.00
2018-12-14T23:57:59.195Z,100639.00
